Time;durP1;ratioP1;P1;durP2;ratioP2;P2;SDS_P1;SDS_P2;PMS_P1;PMS_P2;Temp;Humidity;BMP_temperature;BMP_pressure;BME280_temperature;BME280_humidity;BME280_pressure;Samples;Min_cycle;Max_cycle;Signal;HPM_P1;HPM_P2
2022/12/31 00:01:48;;;;;;;8.57;6.00;;;12.30;99.90;;;;;;5110094;27;20495;-84
2022/12/31 00:04:13;;;;;;;10.95;6.50;;;12.40;99.90;;;;;;5106406;27;20051;-84
2022/12/31 00:06:39;;;;;;;8.15;5.93;;;12.30;99.90;;;;;;5110478;27;20039;-83
2022/12/31 00:09:06;;;;;;;11.15;6.63;;;12.30;99.90;;;;;;5108704;27;20035;-85
2022/12/31 00:11:33;;;;;;;12.15;8.00;;;12.30;99.90;;;;;;5090059;27;20089;-84
2022/12/31 00:13:59;;;;;;;11.38;6.95;;;12.30;99.90;;;;;;5142086;27;20043;-83
2022/12/31 00:16:31;;;;;;;11.07;7.00;;;12.30;99.90;;;;;;5129947;27;20046;-86
2022/12/31 00:18:59;;;;;;;11.05;7.22;;;12.30;99.90;;;;;;5128334;27;20039;-84
2022/12/31 00:21:27;;;;;;;15.38;8.40;;;12.30;99.90;;;;;;5112044;27;20038;-84
2022/12/31 00:23:53;;;;;;;13.25;8.27;;;12.20;99.90;;;;;;5127420;27;20062;-85
2022/12/31 00:26:23;;;;;;;12.38;8.70;;;12.20;99.90;;;;;;5093639;27;20055;-84
2022/12/31 00:28:49;;;;;;;13.48;8.52;;;12.10;99.90;;;;;;5110699;27;20501;-84
2022/12/31 00:31:22;;;;;;;14.70;8.98;;;12.10;99.90;;;;;;5109901;27;20039;-84
2022/12/31 00:33:48;;;;;;;13.00;7.95;;;12.10;99.90;;;;;;5107641;27;20107;-84
2022/12/31 00:36:21;;;;;;;13.90;7.60;;;12.10;99.90;;;;;;5109038;27;20043;-83
2022/12/31 00:38:49;;;;;;;13.10;7.95;;;12.10;99.90;;;;;;5106616;27;20497;-84
2022/12/31 00:41:16;;;;;;;10.23;6.75;;;12.10;99.90;;;;;;5110645;27;20919;-84
2022/12/31 00:43:42;;;;;;;10.82;6.85;;;12.00;99.90;;;;;;5107380;27;20083;-85
2022/12/31 00:46:09;;;;;;;11.40;7.00;;;12.00;99.90;;;;;;5107972;27;20035;-84
2022/12/31 00:48:35;;;;;;;11.23;6.70;;;12.10;99.90;;;;;;5109489;27;20096;-84
2022/12/31 00:51:02;;;;;;;10.10;6.40;;;12.10;99.90;;;;;;5107934;27;20035;-85
2022/12/31 00:53:29;;;;;;;11.05;6.40;;;12.10;99.90;;;;;;5108433;27;20050;-85
2022/12/31 00:56:02;;;;;;;9.85;6.50;;;12.10;99.90;;;;;;5110084;27;20070;-84
2022/12/31 00:58:28;;;;;;;9.75;5.85;;;12.10;99.90;;;;;;5108378;27;20074;-84
2022/12/31 01:00:54;;;;;;;9.35;5.93;;;12.10;99.90;;;;;;5125461;27;20067;-84
2022/12/31 01:03:19;;;;;;;9.98;6.05;;;12.10;99.90;;;;;;5105168;27;20035;-84
2022/12/31 01:05:45;;;;;;;9.65;5.78;;;12.10;99.90;;;;;;5108932;27;20075;-84
2022/12/31 01:08:11;;;;;;;10.85;6.40;;;12.10;99.90;;;;;;5110213;27;20077;-84
2022/12/31 01:13:21;;;;;;;10.68;5.75;;;12.10;99.90;;;;;;5110453;27;20469;-84
2022/12/31 01:15:46;;;;;;;9.65;5.65;;;12.20;99.90;;;;;;5109988;27;20065;-83
2022/12/31 01:18:12;;;;;;;10.38;5.40;;;12.20;99.90;;;;;;5110180;27;20051;-84
2022/12/31 01:20:41;;;;;;;9.95;5.32;;;12.20;99.90;;;;;;5105236;27;20549;-84
2022/12/31 01:23:08;;;;;;;8.95;5.10;;;12.20;99.90;;;;;;5125875;27;20475;-83
2022/12/31 01:25:36;;;;;;;9.45;5.55;;;12.20;99.90;;;;;;5110573;27;20364;-84
2022/12/31 01:28:03;;;;;;;8.75;5.00;;;12.20;99.90;;;;;;5128527;27;20038;-84
2022/12/31 01:30:29;;;;;;;9.82;5.40;;;12.20;99.90;;;;;;5107460;27;20073;-84
2022/12/31 01:32:55;;;;;;;9.48;5.28;;;12.20;99.90;;;;;;5107460;27;20494;-84
2022/12/31 01:35:20;;;;;;;8.75;5.60;;;12.20;99.90;;;;;;5106837;27;20543;-85
2022/12/31 01:37:46;;;;;;;9.13;5.57;;;12.20;99.90;;;;;;5120896;27;20047;-84
2022/12/31 01:40:12;;;;;;;9.15;5.63;;;12.20;99.90;;;;;;5123191;27;20066;-84
2022/12/31 01:42:37;;;;;;;9.68;5.78;;;12.10;99.90;;;;;;5128191;27;20035;-84
2022/12/31 01:45:08;;;;;;;11.05;5.75;;;12.10;99.90;;;;;;5124307;27;20512;-85
2022/12/31 01:47:41;;;;;;;9.25;5.10;;;12.10;99.90;;;;;;5110273;27;20112;-85
2022/12/31 01:50:30;;;;;;;8.98;5.18;;;12.10;99.90;;;;;;5101868;27;20065;-83
2022/12/31 01:53:02;;;;;;;9.30;4.70;;;12.00;99.90;;;;;;5122520;27;20062;-85
2022/12/31 01:55:53;;;;;;;9.35;4.88;;;12.00;99.90;;;;;;5108608;27;20040;-85
2022/12/31 01:58:29;;;;;;;10.93;5.22;;;12.00;99.90;;;;;;5106434;27;20031;-86
2022/12/31 02:00:57;;;;;;;8.57;4.88;;;11.90;99.90;;;;;;5090469;27;20035;-86
2022/12/31 02:03:25;;;;;;;8.27;4.25;;;11.90;99.90;;;;;;5105003;27;20066;-86
2022/12/31 02:06:04;;;;;;;9.25;4.50;;;12.00;99.90;;;;;;5119138;27;20050;-87
2022/12/31 02:08:30;;;;;;;8.20;4.18;;;12.00;99.90;;;;;;5091570;27;20035;-87
2022/12/31 02:10:56;;;;;;;9.73;5.00;;;11.90;99.90;;;;;;5105819;27;20062;-86
2022/12/31 02:13:21;;;;;;;8.65;4.82;;;11.90;99.90;;;;;;5126812;27;20043;-87
2022/12/31 02:15:56;;;;;;;8.27;4.97;;;11.90;99.90;;;;;;5108783;27;20596;-87
2022/12/31 02:19:03;;;;;;;8.68;4.38;;;11.90;99.90;;;;;;5110215;28;20050;-86
2022/12/31 02:21:52;;;;;;;8.88;4.50;;;11.80;99.90;;;;;;5041946;28;20045;-87
2022/12/31 02:24:42;;;;;;;7.75;4.15;;;11.80;99.90;;;;;;5026745;28;20056;-87
2022/12/31 02:27:32;;;;;;;7.78;4.28;;;11.80;99.90;;;;;;5043938;28;20123;-88
2022/12/31 02:30:07;;;;;;;8.07;3.88;;;11.80;99.90;;;;;;5011008;28;20037;-88
2022/12/31 02:32:55;;;;;;;8.73;3.95;;;11.80;99.90;;;;;;5028598;28;20052;-88
2022/12/31 02:35:29;;;;;;;10.48;3.92;;;11.80;99.90;;;;;;5002416;28;20436;-88
2022/12/31 02:38:09;;;;;;;6.80;3.22;;;11.80;99.90;;;;;;5028589;28;20109;-88
2022/12/31 02:40:37;;;;;;;7.30;3.10;;;11.80;99.90;;;;;;5044919;28;20056;-88
2022/12/31 02:43:03;;;;;;;6.60;2.63;;;11.70;99.90;;;;;;5011731;28;20045;-89
2022/12/31 02:45:38;;;;;;;7.32;2.90;;;11.70;99.90;;;;;;5044720;28;20045;-89
2022/12/31 02:48:35;;;;;;;8.05;2.28;;;11.70;99.90;;;;;;5024864;28;20045;-88
2022/12/31 02:51:10;;;;;;;5.72;1.80;;;11.60;99.90;;;;;;5011056;28;20095;-88
2022/12/31 02:53:44;;;;;;;5.70;1.65;;;11.60;99.90;;;;;;5044072;28;20061;-86
2022/12/31 02:56:20;;;;;;;5.55;1.90;;;11.50;99.90;;;;;;5058536;28;21886;-88
2022/12/31 03:04:38;;;;;;;5.70;1.77;;;11.40;99.90;;;;;;5107517;28;20047;-86
2022/12/31 03:07:07;;;;;;;4.07;1.73;;;11.40;99.90;;;;;;5110872;27;20083;-87
2022/12/31 03:09:34;;;;;;;5.55;1.70;;;11.30;99.90;;;;;;5129867;27;20057;-87
2022/12/31 03:14:45;;;;;;;5.60;2.28;;;11.30;99.90;;;;;;5131080;27;20301;-88
2022/12/31 03:17:11;;;;;;;6.90;2.78;;;11.20;99.90;;;;;;5112671;27;20100;-88
2022/12/31 03:22:27;;;;;;;6.43;2.78;;;11.20;99.90;;;;;;5111818;27;20055;-88
2022/12/31 03:27:46;;;;;;;7.03;3.05;;;11.30;99.90;;;;;;5106063;27;20051;-88
2022/12/31 03:30:13;;;;;;;7.15;3.00;;;11.20;99.90;;;;;;5112973;27;20150;-88
2022/12/31 03:32:40;;;;;;;8.15;3.20;;;11.20;99.90;;;;;;5126327;27;20061;-88
2022/12/31 03:35:06;;;;;;;6.15;2.78;;;11.20;99.90;;;;;;5113074;27;20066;-88
2022/12/31 03:37:32;;;;;;;7.28;3.17;;;11.20;99.90;;;;;;5131622;27;20027;-88
2022/12/31 03:39:57;;;;;;;8.15;3.40;;;11.20;99.90;;;;;;5128709;27;20051;-88
2022/12/31 03:42:23;;;;;;;7.10;3.20;;;11.20;99.90;;;;;;5107070;27;20111;-89
2022/12/31 03:44:49;;;;;;;8.50;3.78;;;11.20;99.90;;;;;;5112348;27;20031;-88
2022/12/31 03:47:14;;;;;;;8.68;4.07;;;11.20;99.90;;;;;;5107642;27;20122;-88
2022/12/31 03:49:40;;;;;;;8.65;4.13;;;11.20;99.90;;;;;;5113374;27;20031;-87
2022/12/31 03:52:07;;;;;;;9.05;4.45;;;11.20;99.90;;;;;;5129754;27;20035;-85
2022/12/31 03:54:33;;;;;;;9.02;4.60;;;11.20;99.90;;;;;;5139122;27;20047;-87
2022/12/31 03:56:59;;;;;;;9.25;5.03;;;11.20;99.90;;;;;;5111200;27;20429;-86
2022/12/31 03:59:24;;;;;;;10.15;4.93;;;11.20;99.90;;;;;;5109715;27;20032;-87
2022/12/31 04:01:50;;;;;;;9.85;4.88;;;11.30;99.90;;;;;;5114746;27;20050;-86
2022/12/31 04:04:16;;;;;;;11.25;5.72;;;11.30;99.90;;;;;;5133665;27;20035;-87
2022/12/31 04:06:41;;;;;;;10.38;5.18;;;11.30;99.90;;;;;;5115211;27;20035;-86
2022/12/31 04:09:07;;;;;;;8.55;4.85;;;11.30;99.90;;;;;;5113419;27;20023;-86
2022/12/31 04:11:32;;;;;;;9.55;5.40;;;11.30;99.90;;;;;;5094016;27;20042;-87
2022/12/31 04:13:58;;;;;;;8.95;5.88;;;11.30;99.90;;;;;;5095131;27;20081;-86
2022/12/31 04:16:24;;;;;;;12.23;6.18;;;11.30;99.90;;;;;;5097655;27;20129;-87
2022/12/31 04:18:50;;;;;;;8.90;5.20;;;11.30;99.90;;;;;;5108465;28;20062;-87
2022/12/31 04:21:15;;;;;;;9.10;5.45;;;11.30;99.90;;;;;;5110557;27;20050;-88
2022/12/31 04:23:41;;;;;;;8.52;5.22;;;11.30;99.90;;;;;;5130412;27;20062;-88
2022/12/31 04:26:07;;;;;;;9.68;5.65;;;11.30;99.90;;;;;;5131266;27;20558;-87
2022/12/31 04:28:32;;;;;;;9.30;5.30;;;11.30;99.90;;;;;;5110495;27;20462;-88
2022/12/31 04:30:58;;;;;;;8.48;4.90;;;11.30;99.90;;;;;;5108858;27;20094;-87
2022/12/31 04:33:23;;;;;;;9.45;5.05;;;11.40;99.90;;;;;;5130049;27;20062;-87
2022/12/31 04:35:49;;;;;;;9.57;4.70;;;11.30;99.90;;;;;;5110181;27;20089;-87
2022/12/31 04:38:15;;;;;;;8.85;4.00;;;11.30;99.90;;;;;;5146562;27;20457;-87
2022/12/31 04:41:15;;;;;;;7.43;3.45;;;11.30;99.90;;;;;;5103611;27;20043;-86
2022/12/31 04:43:26;;;;;;;8.18;4.07;;;11.30;99.90;;;;;;5128498;27;20051;-87
2022/12/31 04:45:52;;;;;;;7.50;3.50;;;11.30;99.90;;;;;;5110680;27;20364;-87
2022/12/31 04:48:18;;;;;;;8.10;3.30;;;11.30;99.90;;;;;;5106649;27;20039;-86
2022/12/31 04:50:45;;;;;;;6.53;3.00;;;11.30;99.90;;;;;;5110761;27;20397;-87
2022/12/31 04:53:11;;;;;;;8.73;3.80;;;11.30;99.90;;;;;;5143686;27;20729;-86
2022/12/31 04:55:36;;;;;;;6.38;3.03;;;11.20;99.90;;;;;;5130403;27;20092;-86
2022/12/31 04:58:03;;;;;;;7.72;3.30;;;11.20;99.90;;;;;;5129995;27;20047;-87
2022/12/31 05:00:29;;;;;;;7.10;2.95;;;11.30;99.90;;;;;;5107140;27;20544;-87
2022/12/31 05:02:55;;;;;;;8.45;3.50;;;11.20;99.90;;;;;;5110150;27;20043;-87
2022/12/31 05:05:20;;;;;;;9.52;3.25;;;11.20;99.90;;;;;;5109031;27;20042;-86
2022/12/31 05:07:46;;;;;;;8.20;3.50;;;11.20;99.90;;;;;;5126504;27;20104;-86
2022/12/31 05:10:12;;;;;;;9.80;3.90;;;11.20;99.90;;;;;;5109800;27;20039;-86
2022/12/31 05:12:37;;;;;;;7.65;3.35;;;11.20;99.90;;;;;;5111976;27;20130;-87
2022/12/31 05:15:03;;;;;;;8.27;3.63;;;11.20;99.90;;;;;;5105663;27;20047;-87
2022/12/31 05:17:29;;;;;;;8.32;3.55;;;11.20;99.90;;;;;;5130204;27;20058;-87
2022/12/31 05:19:55;;;;;;;8.40;3.72;;;11.20;99.90;;;;;;5110826;27;20039;-87
2022/12/31 05:22:29;;;;;;;8.77;3.55;;;11.20;99.90;;;;;;5107342;27;20192;-87
2022/12/31 05:24:59;;;;;;;9.25;3.75;;;11.20;99.90;;;;;;5127097;27;20061;-87
2022/12/31 05:27:26;;;;;;;8.18;3.33;;;11.10;99.90;;;;;;5109956;27;20043;-87
2022/12/31 05:29:52;;;;;;;8.80;3.60;;;11.10;99.90;;;;;;5108660;27;20050;-87
2022/12/31 05:32:18;;;;;;;8.07;3.42;;;11.10;99.90;;;;;;5110331;27;20039;-88
2022/12/31 05:34:43;;;;;;;8.60;3.75;;;11.10;99.90;;;;;;5110824;27;20430;-87
2022/12/31 05:37:10;;;;;;;9.43;4.35;;;11.10;99.90;;;;;;5106852;27;20043;-87
2022/12/31 05:39:36;;;;;;;9.13;4.97;;;11.10;99.90;;;;;;5107035;28;20773;-86
2022/12/31 05:42:02;;;;;;;9.63;5.82;;;11.10;99.90;;;;;;5108055;27;20069;-87
2022/12/31 05:44:27;;;;;;;10.00;6.07;;;11.20;99.90;;;;;;5109595;27;20039;-88
2022/12/31 05:46:53;;;;;;;10.63;6.25;;;11.20;99.90;;;;;;5110529;27;20376;-88
2022/12/31 05:49:18;;;;;;;10.57;7.38;;;11.20;99.90;;;;;;5105538;27;20038;-87
2022/12/31 05:51:44;;;;;;;11.52;7.63;;;11.20;99.90;;;;;;5137089;27;20387;-87
2022/12/31 05:54:10;;;;;;;11.73;7.80;;;11.20;99.90;;;;;;5104676;27;20054;-86
2022/12/31 05:56:36;;;;;;;10.43;7.13;;;11.20;99.90;;;;;;5118939;27;20050;-86
2022/12/31 05:59:01;;;;;;;10.32;7.90;;;11.20;99.90;;;;;;5107748;27;20140;-88
2022/12/31 06:01:27;;;;;;;10.82;7.50;;;11.20;99.90;;;;;;5094281;27;20042;-89
2022/12/31 06:03:53;;;;;;;11.02;7.50;;;11.20;99.90;;;;;;5092801;27;20031;-88
2022/12/31 06:06:18;;;;;;;10.52;7.28;;;11.20;99.90;;;;;;5111677;27;20039;-87
2022/12/31 06:08:48;;;;;;;10.73;7.68;;;11.20;99.90;;;;;;5109098;27;20475;-86
2022/12/31 06:11:14;;;;;;;10.50;7.18;;;11.20;99.90;;;;;;5124339;27;20047;-83
2022/12/31 06:13:39;;;;;;;10.07;6.82;;;11.30;99.90;;;;;;5108713;27;20050;-86
2022/12/31 06:16:08;;;;;;;10.18;5.68;;;11.30;99.90;;;;;;5109560;27;20042;-89
2022/12/31 06:18:34;;;;;;;9.05;5.90;;;11.30;99.90;;;;;;5109743;28;20074;-88
2022/12/31 06:21:00;;;;;;;8.68;5.72;;;11.30;99.90;;;;;;5109407;27;20502;-87
2022/12/31 06:23:26;;;;;;;8.30;5.70;;;11.30;99.90;;;;;;5122158;27;20138;-86
2022/12/31 06:25:51;;;;;;;7.75;5.07;;;11.30;99.90;;;;;;5123242;27;20066;-86
2022/12/31 06:28:17;;;;;;;10.23;5.43;;;11.20;99.90;;;;;;5123255;28;20062;-88
2022/12/31 06:30:43;;;;;;;8.18;4.82;;;11.20;99.90;;;;;;5110191;28;20039;-86
2022/12/31 06:33:08;;;;;;;11.40;5.68;;;11.30;99.90;;;;;;5127885;28;20047;-86
2022/12/31 06:35:34;;;;;;;10.35;5.47;;;11.20;99.90;;;;;;5108618;28;20042;-86
2022/12/31 06:38:00;;;;;;;9.00;5.50;;;11.20;99.90;;;;;;5123725;28;20031;-87
2022/12/31 06:40:26;;;;;;;9.90;5.78;;;11.20;99.90;;;;;;5129744;27;20047;-89
2022/12/31 06:42:52;;;;;;;9.13;5.57;;;11.20;99.90;;;;;;5092247;27;20462;-89
2022/12/31 06:45:18;;;;;;;7.95;5.10;;;11.20;99.90;;;;;;5116528;27;20110;-88
2022/12/31 06:47:44;;;;;;;9.75;5.10;;;11.20;99.90;;;;;;5104884;27;20064;-87
2022/12/31 06:50:09;;;;;;;7.88;4.60;;;11.20;99.90;;;;;;5137181;27;20114;-87
2022/12/31 06:52:35;;;;;;;9.13;4.68;;;11.20;99.90;;;;;;5137330;27;20035;-87
2022/12/31 06:55:01;;;;;;;9.20;5.10;;;11.20;99.90;;;;;;5134385;27;20367;-85
2022/12/31 06:57:27;;;;;;;9.80;4.97;;;11.20;99.90;;;;;;5146082;27;20503;-87
2022/12/31 06:59:53;;;;;;;9.20;5.90;;;11.10;99.90;;;;;;5140709;27;20031;-88
2022/12/31 07:02:41;;;;;;;9.80;5.65;;;11.10;99.90;;;;;;5104389;27;20146;-90
2022/12/31 07:05:29;;;;;;;9.48;6.13;;;11.10;99.90;;;;;;5124447;27;20043;-87
2022/12/31 07:08:17;;;;;;;9.73;6.13;;;11.10;99.90;;;;;;5118393;27;20046;-88
2022/12/31 07:10:58;;;;;;;9.68;6.28;;;11.10;99.90;;;;;;5140424;27;20057;-87
2022/12/31 07:13:53;;;;;;;8.90;5.90;;;11.10;99.90;;;;;;5120797;27;20042;-89
2022/12/31 07:16:56;;;;;;;9.20;6.22;;;11.10;99.90;;;;;;5130885;27;20511;-84
2022/12/31 07:19:39;;;;;;;10.23;5.93;;;11.10;99.90;;;;;;5111998;27;20047;-83
2022/12/31 07:22:13;;;;;;;9.38;5.85;;;11.10;99.90;;;;;;5108117;27;20053;-84
2022/12/31 07:24:40;;;;;;;9.07;5.88;;;11.10;99.90;;;;;;5112979;27;20126;-86
2022/12/31 07:27:34;;;;;;;8.90;5.88;;;11.10;99.90;;;;;;5111647;27;21300;-85
2022/12/31 07:30:16;;;;;;;9.73;5.80;;;11.10;99.90;;;;;;5091092;27;20054;-85
2022/12/31 07:33:12;;;;;;;9.25;5.50;;;11.10;99.90;;;;;;5130563;27;20138;-86
2022/12/31 07:35:50;;;;;;;9.38;5.50;;;11.10;99.90;;;;;;5107233;27;20114;-85
2022/12/31 07:38:32;;;;;;;10.07;6.18;;;11.10;99.90;;;;;;5128333;27;20047;-86
2022/12/31 07:41:14;;;;;;;9.40;5.60;;;11.10;99.90;;;;;;5093612;27;20098;-85
2022/12/31 07:44:01;;;;;;;9.07;5.57;;;11.10;99.90;;;;;;5126941;27;20054;-85
2022/12/31 07:46:45;;;;;;;9.18;5.40;;;11.20;99.90;;;;;;5138086;27;20036;-86
2022/12/31 07:49:12;;;;;;;9.63;5.43;;;11.20;99.90;;;;;;5109508;27;20070;-83
2022/12/31 07:51:38;;;;;;;9.80;5.40;;;11.20;99.90;;;;;;5110303;27;20038;-89
2022/12/31 07:54:04;;;;;;;8.65;4.97;;;11.20;99.90;;;;;;5107956;27;20102;-86
2022/12/31 07:56:30;;;;;;;9.43;5.18;;;11.20;99.90;;;;;;5112017;27;20074;-86
2022/12/31 07:59:05;;;;;;;8.70;5.25;;;11.30;99.90;;;;;;5107785;27;20035;-86
2022/12/31 08:01:50;;;;;;;8.63;5.40;;;11.30;99.90;;;;;;5112559;27;20417;-85
2022/12/31 08:04:37;;;;;;;9.52;5.00;;;11.30;99.90;;;;;;5111906;27;20043;-83
2022/12/31 08:07:24;;;;;;;9.13;5.35;;;11.30;99.90;;;;;;5126539;27;20067;-84
2022/12/31 08:10:13;;;;;;;10.18;5.85;;;11.40;99.90;;;;;;5128028;27;20509;-82
2022/12/31 08:12:40;;;;;;;9.30;5.60;;;11.30;99.90;;;;;;5112906;27;20043;-84
2022/12/31 08:15:14;;;;;;;8.73;5.63;;;11.30;99.90;;;;;;5111773;27;20139;-86
2022/12/31 08:17:40;;;;;;;10.60;5.82;;;11.30;99.90;;;;;;5111173;27;20167;-83
2022/12/31 08:20:06;;;;;;;9.68;6.13;;;11.40;99.90;;;;;;5093978;27;20077;-86
2022/12/31 08:22:58;;;;;;;10.32;6.10;;;11.40;99.90;;;;;;5129126;27;20043;-83
2022/12/31 08:26:09;;;;;;;9.27;6.30;;;11.40;99.90;;;;;;5106449;27;20132;-84
2022/12/31 08:29:03;;;;;;;12.97;6.87;;;11.50;99.90;;;;;;5104529;27;20043;-84
2022/12/31 08:31:40;;;;;;;9.68;7.15;;;11.50;99.90;;;;;;5107936;27;20297;-85
2022/12/31 08:34:10;;;;;;;10.90;7.50;;;11.60;99.90;;;;;;5112585;27;20038;-84
2022/12/31 08:36:58;;;;;;;10.65;6.80;;;11.60;99.90;;;;;;5129200;27;20047;-85
2022/12/31 08:39:39;;;;;;;10.52;7.15;;;11.70;99.90;;;;;;5110935;27;20062;-85
2022/12/31 08:42:24;;;;;;;11.20;7.55;;;11.70;99.90;;;;;;5128951;27;20142;-84
2022/12/31 08:44:58;;;;;;;9.82;7.10;;;11.80;99.90;;;;;;5141048;27;20031;-84
2022/12/31 08:47:39;;;;;;;9.00;6.15;;;11.90;99.90;;;;;;5126861;27;20551;-86
2022/12/31 08:50:05;;;;;;;10.65;6.65;;;11.90;99.90;;;;;;5113412;27;20092;-87
2022/12/31 08:52:31;;;;;;;9.35;5.43;;;11.90;99.90;;;;;;5115828;27;20035;-87
2022/12/31 08:54:58;;;;;;;8.20;5.53;;;12.00;99.90;;;;;;5118993;27;20137;-88
2022/12/31 08:57:29;;;;;;;7.75;5.13;;;12.10;99.90;;;;;;5112599;27;20096;-83
2022/12/31 09:00:14;;;;;;;7.57;5.30;;;12.20;99.90;;;;;;5136263;27;20101;-86
2022/12/31 09:03:09;;;;;;;7.68;4.88;;;12.30;99.90;;;;;;5107199;28;20027;-85
2022/12/31 09:05:59;;;;;;;7.75;4.95;;;12.30;99.90;;;;;;5107158;27;20058;-86
2022/12/31 09:08:37;;;;;;;6.88;4.70;;;12.50;99.90;;;;;;5129056;27;20117;-84
2022/12/31 09:11:20;;;;;;;6.50;4.15;;;12.60;99.90;;;;;;5110772;27;20035;-86
2022/12/31 09:14:07;;;;;;;6.53;4.03;;;12.70;99.90;;;;;;5126719;27;20115;-86
2022/12/31 09:16:55;;;;;;;6.88;4.05;;;12.80;99.90;;;;;;5140255;27;20078;-84
2022/12/31 09:19:20;;;;;;;5.65;2.95;;;12.80;99.90;;;;;;5106190;27;20047;-85
2022/12/31 09:21:46;;;;;;;6.70;3.10;;;12.90;99.90;;;;;;5129458;27;20039;-84
2022/12/31 09:24:13;;;;;;;5.05;2.53;;;13.00;99.90;;;;;;5127423;27;20051;-85
2022/12/31 09:27:21;;;;;;;4.45;2.30;;;13.10;99.90;;;;;;5111452;27;20111;-84
2022/12/31 09:30:00;;;;;;;6.75;2.35;;;13.10;99.90;;;;;;5107905;27;20035;-82
2022/12/31 09:32:38;;;;;;;4.15;1.95;;;13.20;99.90;;;;;;5129569;27;20039;-84
2022/12/31 09:35:20;;;;;;;3.30;1.73;;;13.20;99.90;;;;;;5135132;27;20050;-83
2022/12/31 09:37:53;;;;;;;3.72;1.65;;;13.10;99.90;;;;;;5106138;27;20081;-84
2022/12/31 09:40:47;;;;;;;3.10;1.50;;;13.10;99.90;;;;;;5136891;27;20090;-84
2022/12/31 09:43:37;;;;;;;3.50;1.50;;;13.10;99.90;;;;;;5126305;27;20047;-86
2022/12/31 09:46:34;;;;;;;3.40;1.60;;;13.10;99.90;;;;;;5141094;27;20157;-83
2022/12/31 09:49:30;;;;;;;2.72;1.20;;;13.10;99.90;;;;;;5107339;27;20031;-84
2022/12/31 09:52:34;;;;;;;2.83;1.20;;;13.20;99.90;;;;;;5110018;27;20134;-85
2022/12/31 09:55:06;;;;;;;2.15;1.20;;;13.20;99.90;;;;;;5144037;27;20395;-87
2022/12/31 09:57:54;;;;;;;2.25;1.20;;;13.20;99.90;;;;;;5109531;27;20043;-84
2022/12/31 10:00:37;;;;;;;3.55;1.30;;;13.20;99.90;;;;;;5090669;27;20050;-84
2022/12/31 10:03:15;;;;;;;4.35;1.50;;;13.30;99.90;;;;;;5108620;27;20039;-85
2022/12/31 10:06:05;;;;;;;3.08;1.20;;;13.30;99.90;;;;;;5109651;27;20051;-84
2022/12/31 10:08:45;;;;;;;3.28;1.20;;;13.30;99.90;;;;;;5104628;28;20043;-82
2022/12/31 10:11:44;;;;;;;4.68;1.20;;;13.40;99.90;;;;;;5127003;27;20168;-82
2022/12/31 10:14:28;;;;;;;3.10;1.40;;;13.60;99.90;;;;;;5104802;27;20047;-84
2022/12/31 10:17:12;;;;;;;3.47;0.90;;;13.60;99.90;;;;;;5106753;27;20043;-83
2022/12/31 10:19:59;;;;;;;3.05;1.00;;;13.60;99.90;;;;;;5107335;27;20740;-84
2022/12/31 10:23:03;;;;;;;2.92;1.10;;;13.60;99.90;;;;;;5101117;28;20059;-84
2022/12/31 10:25:55;;;;;;;4.25;1.10;;;13.60;99.90;;;;;;5129102;27;20104;-84
2022/12/31 10:28:50;;;;;;;3.53;1.20;;;13.60;99.90;;;;;;5104986;28;20054;-84
2022/12/31 10:31:38;;;;;;;3.42;1.00;;;13.70;99.90;;;;;;5091728;28;20157;-83
2022/12/31 10:34:30;;;;;;;3.42;1.13;;;13.70;99.90;;;;;;5092167;28;20444;-86
2022/12/31 10:37:17;;;;;;;2.58;1.02;;;13.80;99.90;;;;;;5125498;28;20036;-85
2022/12/31 10:39:55;;;;;;;4.43;1.10;;;13.90;99.90;;;;;;5107418;28;20388;-82
2022/12/31 10:42:57;;;;;;;4.70;1.30;;;13.90;99.90;;;;;;5107351;28;20105;-84
2022/12/31 10:45:49;;;;;;;4.38;1.30;;;14.00;99.90;;;;;;5105593;28;20039;-83
2022/12/31 10:48:46;;;;;;;6.97;1.60;;;14.00;99.90;;;;;;5126306;28;20035;-82
2022/12/31 10:51:30;;;;;;;5.53;1.63;;;13.90;99.90;;;;;;5108378;28;21124;-83
2022/12/31 10:54:33;;;;;;;3.95;1.40;;;14.00;99.90;;;;;;5106165;28;20127;-83
2022/12/31 10:57:18;;;;;;;5.63;1.77;;;14.00;99.90;;;;;;5108433;28;20062;-83
2022/12/31 11:00:09;;;;;;;4.90;1.80;;;13.90;99.90;;;;;;5103434;28;20043;-84
2022/12/31 11:03:20;;;;;;;6.65;2.20;;;13.90;99.90;;;;;;5108108;28;20057;-84
2022/12/31 11:06:06;;;;;;;;;;;13.80;99.90;;;;;;5124936;28;20072;-84
2022/12/31 11:09:12;;;;;;;6.03;2.15;;;13.80;99.90;;;;;;5106040;28;19923;-85
2022/12/31 11:12:05;;;;;;;6.57;2.20;;;13.70;99.90;;;;;;5082284;28;20055;-86
2022/12/31 11:14:43;;;;;;;6.95;2.08;;;13.60;99.90;;;;;;5108689;28;20047;-86
2022/12/31 11:17:48;;;;;;;7.43;2.50;;;13.60;99.90;;;;;;5115502;28;20610;-85
2022/12/31 11:20:14;;;;;;;7.35;2.47;;;13.50;99.90;;;;;;5107277;28;20047;-87
2022/12/31 11:22:56;;;;;;;5.63;2.30;;;13.50;99.90;;;;;;5126385;28;20465;-86
2022/12/31 11:25:43;;;;;;;6.40;2.40;;;13.50;99.90;;;;;;5110520;27;20083;-87
2022/12/31 11:28:37;;;;;;;7.53;2.78;;;13.50;99.90;;;;;;5110263;27;20544;-86
2022/12/31 11:31:11;;;;;;;5.40;2.45;;;13.50;99.90;;;;;;5129311;27;20035;-86
2022/12/31 11:34:09;;;;;;;5.82;2.70;;;13.50;99.90;;;;;;5111845;27;20058;-86
2022/12/31 11:36:56;;;;;;;7.22;2.97;;;13.60;99.90;;;;;;5109790;27;20079;-85
2022/12/31 11:39:47;;;;;;;7.18;3.08;;;13.60;99.90;;;;;;5129369;27;20041;-83
2022/12/31 11:42:38;;;;;;;7.65;3.08;;;13.70;99.90;;;;;;5106781;27;20413;-83
2022/12/31 11:45:09;;;;;;;8.30;3.28;;;13.70;99.90;;;;;;5125628;27;20066;-85
2022/12/31 11:47:51;;;;;;;6.53;3.05;;;13.70;99.90;;;;;;5104141;27;20047;-85
2022/12/31 11:50:24;;;;;;;8.23;3.20;;;13.70;99.90;;;;;;5111335;27;20039;-87
2022/12/31 11:53:08;;;;;;;6.63;3.03;;;13.70;99.90;;;;;;5095112;27;20045;-85
2022/12/31 11:55:55;;;;;;;7.95;3.22;;;13.70;99.90;;;;;;5112699;27;20043;-86
2022/12/31 11:58:27;;;;;;;9.02;3.60;;;13.70;99.90;;;;;;5126987;27;20096;-85
2022/12/31 12:01:09;;;;;;;8.25;4.65;;;13.80;99.90;;;;;;5112191;27;20153;-84
2022/12/31 12:03:41;;;;;;;8.90;5.32;;;13.80;99.90;;;;;;5129522;27;20161;-85
2022/12/31 12:06:13;;;;;;;10.93;6.47;;;13.90;99.90;;;;;;5112368;27;20039;-86
2022/12/31 12:08:40;;;;;;;9.38;5.10;;;13.90;99.90;;;;;;5112231;27;20099;-84
2022/12/31 12:11:19;;;;;;;9.10;4.88;;;14.00;99.90;;;;;;5111144;27;20035;-86
2022/12/31 12:13:45;;;;;;;7.45;3.50;;;14.10;99.90;;;;;;5113571;27;20130;-89
2022/12/31 12:16:12;;;;;;;9.23;3.45;;;14.10;99.90;;;;;;5109604;27;20451;-84
2022/12/31 12:18:43;;;;;;;7.78;3.20;;;14.30;99.90;;;;;;5096268;27;20031;-87
2022/12/31 12:21:09;;;;;;;5.32;2.42;;;14.30;99.90;;;;;;5106437;27;20097;-85
2022/12/31 12:23:35;;;;;;;6.90;2.30;;;14.30;99.90;;;;;;5109926;27;20051;-84
2022/12/31 12:26:01;;;;;;;4.07;2.13;;;14.40;99.90;;;;;;5107135;27;20494;-85
2022/12/31 12:28:30;;;;;;;5.38;2.45;;;14.50;99.90;;;;;;5093208;27;20039;-84
2022/12/31 12:30:57;;;;;;;5.07;1.88;;;14.40;99.90;;;;;;5118774;27;20128;-83
2022/12/31 12:33:23;;;;;;;5.60;1.85;;;14.40;99.90;;;;;;5125477;27;20038;-83
2022/12/31 12:35:49;;;;;;;6.95;1.90;;;14.50;99.90;;;;;;5110441;27;20039;-88
2022/12/31 12:38:19;;;;;;;7.95;3.38;;;14.50;99.90;;;;;;5089800;27;20050;-84
2022/12/31 12:41:00;;;;;;;6.13;2.42;;;14.60;99.90;;;;;;5107963;27;20055;-83
2022/12/31 12:43:29;;;;;;;3.47;1.50;;;14.50;99.90;;;;;;5128906;27;20108;-85
2022/12/31 12:46:17;;;;;;;5.55;1.52;;;14.60;99.90;;;;;;5126721;27;20690;-85
2022/12/31 12:48:46;;;;;;;5.18;1.92;;;14.60;99.90;;;;;;5109559;27;20031;-82
2022/12/31 12:51:39;;;;;;;5.78;2.33;;;14.60;99.90;;;;;;5109444;27;20680;-86
2022/12/31 12:54:08;;;;;;;4.57;1.73;;;14.60;99.90;;;;;;5129958;27;20046;-86
2022/12/31 12:56:44;;;;;;;5.45;2.10;;;14.60;99.90;;;;;;5111540;27;20039;-86
2022/12/31 12:59:34;;;;;;;6.38;1.90;;;14.50;99.90;;;;;;5109097;27;20113;-86
2022/12/31 13:02:21;;;;;;;5.20;2.13;;;14.50;99.90;;;;;;5107521;27;20406;-85
2022/12/31 13:05:13;;;;;;;4.25;2.10;;;14.50;99.90;;;;;;5125735;27;20483;-85
2022/12/31 13:08:16;;;;;;;4.90;2.15;;;14.40;99.90;;;;;;5121702;27;20712;-89
2022/12/31 13:11:35;;;;;;;6.28;2.45;;;14.30;99.90;;;;;;5109607;27;20035;-87
2022/12/31 13:14:15;;;;;;;5.20;2.25;;;14.20;99.90;;;;;;5058301;28;20059;-84
2022/12/31 13:17:19;;;;;;;6.72;2.30;;;14.10;99.90;;;;;;5049073;28;20123;-88
2022/12/31 13:20:17;;;;;;;5.72;2.33;;;14.10;99.90;;;;;;5048341;28;20048;-89
2022/12/31 13:22:59;;;;;;;5.55;2.20;;;14.10;99.90;;;;;;5008104;28;20041;-88
2022/12/31 13:25:58;;;;;;;4.13;1.90;;;14.00;99.90;;;;;;5065969;28;20056;-88
2022/12/31 13:28:24;;;;;;;6.88;2.50;;;14.10;99.90;;;;;;5066655;28;20143;-88
2022/12/31 13:31:08;;;;;;;5.63;2.17;;;14.00;99.90;;;;;;5051750;28;20049;-87
2022/12/31 13:33:39;;;;;;;7.18;2.22;;;13.90;99.90;;;;;;5032733;28;20040;-89
2022/12/31 13:36:18;;;;;;;6.97;2.85;;;13.90;99.90;;;;;;5072090;28;20052;-91
2022/12/31 13:38:52;;;;;;;6.32;2.65;;;13.90;99.90;;;;;;5043626;28;20036;-85
2022/12/31 13:41:24;;;;;;;8.02;2.75;;;13.80;99.90;;;;;;5030722;28;20063;-88
2022/12/31 13:44:16;;;;;;;5.43;2.35;;;13.70;99.90;;;;;;5061085;27;20051;-87